createdAt,value
2017-12-19T00:00:09.926Z,20.23
2017-12-19T00:02:11.021Z,19.43
2017-12-19T00:04:15.426Z,18.77
2017-12-19T00:06:16.585Z,18.93
2017-12-19T00:08:17.551Z,20.37
2017-12-19T00:10:34.311Z,19.37
2017-12-19T00:12:35.291Z,18.77
2017-12-19T00:14:36.369Z,20.50
2017-12-19T00:16:38.291Z,20.23
2017-12-19T00:18:39.281Z,19.23
2017-12-19T00:20:40.239Z,22.13
2017-12-19T00:22:42.004Z,20.83
2017-12-19T00:24:43.808Z,20.40
2017-12-19T00:26:44.820Z,19.17
2017-12-19T00:28:46.652Z,20.00
2017-12-19T00:30:47.662Z,20.43
2017-12-19T00:32:48.635Z,21.20
2017-12-19T00:34:49.629Z,19.70
2017-12-19T00:36:50.577Z,20.10
2017-12-19T00:38:51.657Z,20.43
2017-12-19T00:40:52.642Z,20.50
2017-12-19T00:42:53.720Z,20.17
2017-12-19T00:44:54.705Z,22.23
2017-12-19T00:46:55.740Z,21.60
2017-12-19T00:48:56.760Z,22.13
2017-12-19T00:50:58.507Z,22.00
2017-12-19T00:53:00.263Z,22.87
2017-12-19T00:55:01.381Z,21.60
2017-12-19T00:57:02.458Z,22.80
2017-12-19T00:59:03.473Z,22.43
2017-12-19T01:01:04.505Z,24.33
2017-12-19T01:03:05.521Z,22.87
2017-12-19T01:05:07.269Z,23.77
2017-12-19T01:07:08.249Z,24.20
2017-12-19T01:09:09.301Z,25.37
2017-12-19T01:11:10.412Z,24.20
2017-12-19T01:13:12.129Z,24.37
2017-12-19T01:15:13.137Z,25.67
2017-12-19T01:17:14.172Z,24.80
2017-12-19T01:19:15.221Z,24.10
2017-12-19T01:21:16.182Z,25.47
2017-12-19T01:23:17.964Z,24.47
2017-12-19T01:25:19.067Z,24.27
2017-12-19T01:27:20.053Z,26.47
2017-12-19T01:29:21.106Z,25.37
2017-12-19T01:31:22.148Z,26.67
2017-12-19T01:33:23.264Z,26.90
2017-12-19T01:35:24.312Z,27.37
2017-12-19T01:37:25.305Z,27.57
2017-12-19T01:39:26.354Z,26.67
2017-12-19T01:41:27.334Z,27.90
2017-12-19T01:43:28.390Z,27.97
2017-12-19T01:45:29.399Z,28.90
2017-12-19T01:47:30.424Z,28.30
2017-12-19T01:49:31.536Z,29.60
2017-12-19T01:51:32.641Z,29.87
2017-12-19T01:53:33.651Z,26.40
2017-12-19T01:55:35.408Z,30.03
2017-12-19T01:57:36.373Z,27.77
2017-12-19T01:59:37.418Z,29.50
2017-12-19T02:01:39.200Z,27.77
2017-12-19T02:03:40.241Z,27.50
2017-12-19T02:05:41.337Z,29.13
2017-12-19T02:07:42.309Z,29.50
2017-12-19T02:09:43.326Z,32.57
2017-12-19T02:11:44.317Z,30.93
2017-12-19T02:13:46.050Z,31.70
2017-12-19T02:15:47.060Z,32.40
2017-12-19T02:17:48.109Z,32.97
2017-12-19T02:19:49.124Z,31.27
2017-12-19T02:21:50.141Z,31.20
2017-12-19T02:23:51.173Z,31.70
2017-12-19T02:25:52.240Z,31.30
2017-12-19T02:27:53.246Z,31.50
2017-12-19T02:29:54.219Z,31.03
2017-12-19T02:31:55.261Z,29.10
2017-12-19T02:33:56.246Z,32.20
2017-12-19T02:35:57.216Z,32.77
2017-12-19T02:37:59.809Z,32.37
2017-12-19T02:40:00.901Z,31.67
2017-12-19T02:42:01.936Z,32.97
2017-12-19T02:44:02.944Z,31.80
2017-12-19T02:46:04.041Z,29.83
2017-12-19T02:48:05.099Z,33.43
2017-12-19T02:50:06.149Z,31.47
2017-12-19T02:52:07.186Z,33.60
2017-12-19T02:54:08.204Z,31.40
2017-12-19T02:56:09.204Z,31.50
2017-12-19T02:58:11.061Z,32.50
2017-12-19T03:00:12.090Z,32.77
2017-12-19T03:02:13.204Z,33.17
2017-12-19T03:04:14.184Z,31.43
2017-12-19T03:06:15.216Z,32.33
2017-12-19T03:08:16.233Z,33.97
2017-12-19T03:10:17.206Z,33.07
2017-12-19T03:12:18.249Z,35.40
2017-12-19T03:14:19.273Z,31.60
2017-12-19T03:16:20.344Z,32.90
2017-12-19T03:18:21.362Z,33.47
2017-12-19T03:20:22.513Z,32.90
2017-12-19T03:22:24.354Z,34.80
2017-12-19T03:24:25.372Z,33.70
2017-12-19T03:26:26.396Z,34.40
2017-12-19T03:28:27.428Z,36.17
2017-12-19T03:30:28.694Z,35.00
2017-12-19T03:32:29.677Z,36.40
2017-12-19T03:34:30.684Z,35.20
2017-12-19T03:36:31.637Z,34.30
2017-12-19T03:38:32.697Z,34.57
2017-12-19T03:40:33.692Z,34.87
2017-12-19T03:42:34.745Z,33.90
2017-12-19T03:44:35.735Z,33.70
2017-12-19T03:46:36.813Z,34.83
2017-12-19T03:48:37.929Z,37.07
2017-12-19T03:50:38.936Z,35.20
2017-12-19T03:52:40.696Z,37.30
2017-12-19T03:54:41.878Z,35.20
2017-12-19T03:56:42.897Z,36.87
2017-12-19T03:58:44.675Z,33.80
2017-12-19T04:00:45.673Z,37.17
2017-12-19T04:02:46.715Z,36.30
2017-12-19T04:04:47.755Z,37.90
2017-12-19T04:06:48.828Z,36.40
2017-12-19T04:08:49.809Z,35.07
2017-12-19T04:10:50.834Z,37.27
2017-12-19T04:12:51.915Z,36.20
2017-12-19T04:14:53.069Z,37.83
2017-12-19T04:16:54.143Z,35.30
2017-12-19T04:18:55.189Z,36.40
2017-12-19T04:20:56.229Z,37.97
2017-12-19T04:22:57.247Z,39.77
2017-12-19T04:24:59.009Z,39.00
2017-12-19T04:27:00.069Z,39.20
2017-12-19T04:29:01.094Z,39.57
2017-12-19T04:31:02.904Z,37.90
2017-12-19T04:33:03.885Z,38.50
2017-12-19T04:35:04.905Z,42.50
2017-12-19T04:37:05.885Z,39.60
2017-12-19T04:39:06.894Z,41.20
2017-12-19T04:41:07.948Z,41.80
2017-12-19T04:43:08.995Z,39.87
2017-12-19T04:45:10.808Z,39.07
2017-12-19T04:47:11.794Z,40.30
2017-12-19T04:49:12.825Z,41.00
2017-12-19T04:51:13.832Z,41.20
2017-12-19T04:53:14.869Z,40.90
2017-12-19T04:55:15.872Z,38.87
2017-12-19T04:57:16.916Z,40.43
2017-12-19T04:59:17.910Z,41.70
2017-12-19T05:01:19.035Z,38.67
2017-12-19T05:03:19.998Z,39.57
2017-12-19T05:05:21.041Z,42.23
2017-12-19T05:07:22.035Z,41.50
2017-12-19T05:09:23.744Z,39.87
2017-12-19T05:11:24.797Z,41.67
2017-12-19T05:13:25.797Z,39.20
2017-12-19T05:15:26.852Z,37.60
2017-12-19T05:17:27.855Z,40.80
2017-12-19T05:19:29.162Z,40.80
2017-12-19T05:21:30.232Z,41.70
2017-12-19T05:23:31.209Z,42.17
2017-12-19T05:25:32.215Z,41.20
2017-12-19T05:27:33.189Z,40.53
2017-12-19T05:29:34.185Z,39.57
2017-12-19T05:31:35.952Z,43.40
2017-12-19T05:33:36.972Z,41.77
2017-12-19T05:35:37.992Z,40.07
2017-12-19T05:37:39.028Z,41.30
2017-12-19T05:39:40.092Z,41.27
2017-12-19T05:41:41.098Z,42.53
2017-12-19T05:43:42.156Z,39.43
2017-12-19T05:45:43.205Z,43.27
2017-12-19T05:47:44.259Z,41.43
2017-12-19T05:49:45.262Z,43.17
2017-12-19T05:51:47.074Z,42.30
2017-12-19T05:53:48.118Z,40.27
2017-12-19T05:55:49.126Z,42.70
2017-12-19T05:57:50.109Z,43.00
2017-12-19T05:59:51.168Z,39.70
2017-12-19T06:01:52.169Z,42.80
2017-12-19T06:03:53.190Z,42.70
2017-12-19T06:05:54.193Z,43.87
2017-12-19T06:07:55.156Z,42.90
2017-12-19T06:09:56.219Z,43.33
2017-12-19T06:11:57.266Z,40.60
2017-12-19T06:13:58.308Z,43.67
2017-12-19T06:15:59.323Z,42.13
2017-12-19T06:18:00.361Z,44.07
2017-12-19T06:20:01.418Z,42.67
2017-12-19T06:22:02.413Z,41.57
2017-12-19T06:24:03.460Z,42.30
2017-12-19T06:26:04.480Z,41.67
2017-12-19T06:28:05.486Z,41.80
2017-12-19T06:30:07.214Z,41.57
2017-12-19T06:32:08.229Z,40.23
2017-12-19T06:34:09.244Z,41.20
2017-12-19T06:36:10.247Z,41.80
2017-12-19T06:38:11.269Z,41.03
2017-12-19T06:40:13.030Z,38.97
2017-12-19T06:42:14.053Z,41.30
2017-12-19T06:44:15.800Z,38.50
2017-12-19T06:46:16.916Z,40.17
2017-12-19T06:48:18.085Z,40.50
2017-12-19T06:50:19.830Z,38.47
2017-12-19T06:52:20.837Z,38.30
2017-12-19T06:54:21.851Z,38.37
2017-12-19T06:56:22.889Z,39.67
2017-12-19T06:58:23.951Z,38.50
2017-12-19T07:00:25.735Z,40.47
2017-12-19T07:02:27.465Z,41.63
2017-12-19T07:04:28.469Z,38.57
2017-12-19T07:06:29.484Z,40.80
2017-12-19T07:08:30.465Z,37.77
2017-12-19T07:10:31.455Z,43.17
2017-12-19T07:12:32.492Z,39.10
2017-12-19T07:14:33.476Z,39.17
2017-12-19T07:16:34.484Z,43.17
2017-12-19T07:18:35.552Z,42.10
2017-12-19T07:20:36.544Z,40.23
2017-12-19T07:22:37.598Z,39.47
2017-12-19T07:24:38.622Z,42.10
2017-12-19T07:26:39.592Z,41.70
2017-12-19T07:28:40.554Z,42.50
2017-12-19T07:30:41.529Z,42.20
2017-12-19T07:32:42.604Z,41.70
2017-12-19T07:34:44.373Z,39.70
2017-12-19T07:36:45.361Z,42.50
2017-12-19T07:38:46.325Z,42.20
2017-12-19T07:40:47.294Z,41.43
2017-12-19T07:42:48.321Z,42.37
2017-12-19T07:44:49.321Z,40.97
2017-12-19T07:46:50.320Z,46.67
2017-12-19T07:48:51.375Z,40.40
2017-12-19T07:50:52.363Z,39.97
2017-12-19T07:52:53.367Z,41.50
2017-12-19T07:54:54.345Z,45.03
2017-12-19T07:56:55.354Z,44.00
2017-12-19T07:58:56.390Z,45.87
2017-12-19T08:00:57.480Z,42.77
2017-12-19T08:02:58.968Z,42.53
2017-12-19T08:05:00.007Z,43.67
2017-12-19T08:07:01.081Z,44.90
2017-12-19T08:09:02.077Z,41.60
2017-12-19T08:11:03.167Z,44.63
2017-12-19T08:13:04.194Z,45.43
2017-12-19T08:15:05.169Z,43.90
2017-12-19T08:17:06.184Z,46.30
2017-12-19T08:19:07.173Z,43.40
2017-12-19T08:21:08.177Z,44.63
2017-12-19T08:23:09.178Z,45.23
2017-12-19T08:25:10.897Z,44.03
2017-12-19T08:27:11.859Z,47.30
2017-12-19T08:29:12.827Z,42.60
2017-12-19T08:31:14.515Z,45.43
2017-12-19T08:33:15.456Z,42.23
2017-12-19T08:35:16.404Z,42.37
2017-12-19T08:37:17.332Z,39.13
2017-12-19T08:39:19.012Z,43.40
2017-12-19T08:41:19.944Z,41.13
2017-12-19T08:43:21.636Z,42.40
2017-12-19T08:45:22.600Z,43.03
2017-12-19T08:47:23.532Z,39.40
2017-12-19T08:49:24.492Z,41.40
2017-12-19T08:51:25.478Z,38.80
2017-12-19T08:53:27.180Z,44.60
2017-12-19T08:55:28.863Z,43.10
2017-12-19T08:57:29.807Z,40.80
2017-12-19T08:59:30.764Z,40.20
2017-12-19T09:01:31.719Z,41.97
2017-12-19T09:03:32.653Z,40.40
2017-12-19T09:05:33.595Z,39.93
2017-12-19T09:07:34.544Z,40.20
2017-12-19T09:09:35.488Z,39.13
2017-12-19T09:11:36.432Z,40.43
2017-12-19T09:13:37.381Z,41.17
2017-12-19T09:15:38.501Z,37.00
2017-12-19T09:17:39.469Z,37.73
2017-12-19T09:19:40.441Z,39.50
2017-12-19T09:21:41.384Z,40.50
2017-12-19T09:23:42.341Z,36.23
2017-12-19T09:25:43.305Z,37.87
2017-12-19T09:27:44.980Z,38.87
2017-12-19T09:29:45.936Z,38.30
2017-12-19T09:31:47.103Z,37.97
2017-12-19T09:33:48.113Z,37.00
2017-12-19T09:35:49.088Z,35.90
2017-12-19T09:37:50.086Z,34.30
2017-12-19T09:39:51.072Z,35.07
2017-12-19T09:41:52.016Z,34.27
2017-12-19T09:43:52.991Z,36.13
2017-12-19T09:45:53.932Z,36.17
2017-12-19T09:47:54.965Z,37.80
2017-12-19T09:49:56.002Z,34.30
2017-12-19T09:51:56.938Z,36.50
2017-12-19T09:53:57.887Z,35.53
2017-12-19T09:55:58.863Z,34.93
2017-12-19T09:57:59.828Z,34.50
2017-12-19T10:00:00.790Z,32.63
2017-12-19T10:02:01.732Z,28.70
2017-12-19T10:04:02.711Z,31.23
2017-12-19T10:06:03.650Z,30.70
2017-12-19T10:08:04.592Z,30.50
2017-12-19T10:10:05.557Z,30.70
2017-12-19T10:12:06.626Z,30.97
2017-12-19T10:14:07.572Z,31.13
2017-12-19T10:16:09.316Z,27.20
2017-12-19T10:18:10.292Z,26.57
2017-12-19T10:20:11.447Z,27.50
2017-12-19T10:22:12.469Z,28.47
2017-12-19T10:24:13.481Z,27.40
2017-12-19T10:26:15.195Z,24.97
2017-12-19T10:28:16.144Z,27.27
2017-12-19T10:30:17.119Z,24.57
2017-12-19T10:32:18.832Z,24.07
2017-12-19T10:34:20.524Z,24.80
2017-12-19T10:36:21.504Z,25.10
2017-12-19T10:38:23.188Z,24.87
2017-12-19T10:40:24.128Z,24.60
2017-12-19T10:42:25.859Z,23.00
2017-12-19T10:44:26.812Z,22.43
2017-12-19T10:46:28.589Z,23.20
2017-12-19T10:48:29.569Z,24.17
2017-12-19T10:50:30.520Z,22.60
2017-12-19T10:52:31.496Z,21.90
2017-12-19T10:54:32.444Z,22.30
2017-12-19T10:56:33.388Z,21.03
2017-12-19T10:58:34.324Z,21.00
2017-12-19T11:00:35.260Z,20.20
2017-12-19T11:02:36.189Z,21.80
2017-12-19T11:04:37.139Z,20.63
2017-12-19T11:06:38.087Z,21.17
2017-12-19T11:08:39.082Z,20.33
2017-12-19T11:10:40.777Z,20.70
2017-12-19T11:12:41.758Z,21.33
2017-12-19T11:14:42.983Z,22.30
2017-12-19T11:16:43.989Z,21.53
2017-12-19T11:18:44.948Z,21.80
2017-12-19T11:20:46.648Z,19.30
2017-12-19T11:22:47.650Z,22.30
2017-12-19T11:24:48.665Z,22.80
2017-12-19T11:26:49.636Z,22.97
2017-12-19T11:28:50.585Z,19.70
2017-12-19T11:30:51.596Z,20.90
2017-12-19T11:32:52.594Z,19.37
2017-12-19T11:34:54.352Z,22.77
2017-12-19T11:36:56.088Z,22.27
2017-12-19T11:38:57.057Z,22.50
2017-12-19T11:40:58.761Z,23.83
2017-12-19T11:42:59.729Z,24.07
2017-12-19T11:45:00.669Z,24.53
2017-12-19T11:47:01.600Z,23.47
2017-12-19T11:49:02.622Z,23.00
2017-12-19T11:51:03.545Z,23.40
2017-12-19T11:53:05.236Z,23.27
2017-12-19T11:55:06.215Z,23.80
2017-12-19T11:57:07.170Z,24.80
2017-12-19T11:59:08.131Z,24.30
2017-12-19T12:01:09.092Z,24.97
2017-12-19T12:03:10.053Z,25.87
2017-12-19T12:05:11.757Z,23.93
2017-12-19T12:07:12.712Z,25.63
2017-12-19T12:09:13.629Z,26.87
2017-12-19T12:11:14.583Z,25.43
2017-12-19T12:13:16.244Z,26.30
2017-12-19T12:15:17.190Z,26.83
2017-12-19T12:17:18.153Z,26.80
2017-12-19T12:19:19.088Z,24.90
2017-12-19T12:21:20.105Z,22.50
2017-12-19T12:23:21.073Z,25.97
2017-12-19T12:25:22.084Z,25.73
2017-12-19T12:27:23.841Z,24.77
2017-12-19T12:29:25.536Z,23.50
2017-12-19T12:31:26.495Z,24.20
2017-12-19T12:33:27.416Z,23.30
2017-12-19T12:35:28.345Z,25.70
2017-12-19T12:37:30.025Z,23.87
2017-12-19T12:39:30.956Z,25.03
2017-12-19T12:41:32.636Z,27.50
2017-12-19T12:43:33.573Z,27.00
2017-12-19T12:45:35.248Z,23.40
2017-12-19T12:47:36.208Z,26.43
2017-12-19T12:49:37.180Z,24.07
2017-12-19T12:51:38.137Z,21.60
2017-12-19T12:53:39.126Z,25.17
2017-12-19T12:55:40.831Z,24.97
2017-12-19T12:57:41.809Z,26.87
2017-12-19T12:59:42.791Z,24.27
2017-12-19T13:01:43.751Z,28.03
2017-12-19T13:03:44.761Z,25.43
2017-12-19T13:05:46.480Z,26.50
2017-12-19T13:07:47.427Z,29.77
2017-12-19T13:09:48.387Z,25.60
2017-12-19T13:11:49.336Z,27.13
2017-12-19T13:13:50.311Z,24.70
2017-12-19T13:15:52.011Z,25.10
2017-12-19T13:17:52.973Z,27.00
2017-12-19T13:19:53.928Z,23.67
2017-12-19T13:21:54.880Z,26.50
2017-12-19T13:23:55.827Z,24.97
2017-12-19T13:25:56.796Z,26.90
2017-12-19T13:30:25.138Z,26.30
2017-12-19T13:32:27.262Z,23.30
2017-12-19T13:34:28.220Z,26.40
2017-12-19T13:36:29.214Z,25.07
2017-12-19T13:38:30.299Z,24.57
2017-12-19T13:40:31.234Z,26.67
2017-12-19T13:42:32.169Z,27.80
2017-12-19T13:44:33.136Z,25.73
2017-12-19T13:46:34.178Z,26.97
2017-12-19T13:48:35.076Z,24.27
2017-12-19T13:50:36.007Z,25.33
2017-12-19T13:52:37.728Z,24.60
2017-12-19T13:54:38.648Z,25.43
2017-12-19T13:56:39.608Z,24.50
2017-12-19T13:58:40.625Z,22.67
2017-12-19T14:00:41.586Z,23.70
2017-12-19T14:02:42.543Z,25.60
2017-12-19T14:04:43.502Z,23.80
2017-12-19T14:06:44.491Z,23.93
2017-12-19T14:08:46.169Z,23.70
2017-12-19T14:10:47.105Z,25.70
2017-12-19T14:12:48.031Z,23.17
2017-12-19T14:14:49.710Z,24.80
2017-12-19T14:16:50.673Z,23.40
2017-12-19T14:18:51.627Z,24.47
2017-12-19T14:20:52.555Z,22.10
2017-12-19T14:22:53.488Z,25.83
2017-12-19T14:24:55.204Z,25.43
2017-12-19T14:26:56.186Z,24.13
2017-12-19T14:28:57.923Z,24.90
2017-12-19T14:30:58.863Z,24.37
2017-12-19T14:32:59.851Z,22.77
2017-12-19T14:35:01.511Z,23.27
2017-12-19T14:37:03.208Z,23.87
2017-12-19T14:39:04.238Z,24.53
2017-12-19T14:41:05.173Z,24.27
2017-12-19T14:43:06.830Z,25.50
2017-12-19T14:45:08.501Z,25.07
2017-12-19T14:47:09.462Z,25.30
2017-12-19T14:49:10.403Z,22.27
2017-12-19T14:51:11.348Z,25.57
2017-12-19T14:53:12.319Z,26.53
2017-12-19T14:55:13.242Z,25.73
2017-12-19T14:57:14.158Z,23.73
2017-12-19T14:59:15.840Z,25.10
2017-12-19T15:01:16.797Z,26.80
2017-12-19T15:03:17.734Z,26.57
2017-12-19T15:05:18.676Z,28.30
2017-12-19T15:07:19.634Z,28.70
2017-12-19T15:09:20.567Z,26.47
2017-12-19T15:11:22.236Z,27.83
2017-12-19T15:13:23.170Z,27.50
2017-12-19T15:15:24.864Z,28.43
2017-12-19T15:17:25.842Z,27.43
2017-12-19T15:19:26.779Z,28.30
2017-12-19T15:21:27.686Z,35.07
2017-12-19T15:23:28.619Z,27.07
2017-12-19T15:25:29.545Z,28.93
2017-12-19T15:27:31.207Z,28.60
2017-12-19T15:29:32.889Z,26.33
2017-12-19T15:31:33.862Z,27.80
2017-12-19T15:33:34.816Z,27.77
2017-12-19T15:35:35.811Z,26.37
2017-12-19T15:37:37.462Z,28.63
2017-12-19T15:39:38.385Z,27.50
2017-12-19T15:41:39.290Z,29.40
2017-12-19T15:43:40.224Z,46.13
2017-12-19T15:45:47.860Z,34.60
2017-12-19T15:47:49.555Z,27.33
2017-12-19T15:49:50.509Z,34.37
2017-12-19T15:51:51.430Z,50.73
2017-12-19T15:53:52.367Z,41.43
2017-12-19T15:55:53.298Z,31.13
2017-12-19T15:57:54.202Z,34.43
2017-12-19T15:59:55.886Z,30.30
2017-12-19T16:01:56.822Z,27.40
2017-12-19T16:03:58.494Z,27.27
2017-12-19T16:05:59.430Z,27.47
2017-12-19T16:08:00.394Z,29.33
2017-12-19T16:10:01.323Z,27.90
2017-12-19T16:12:02.276Z,27.57
2017-12-19T16:14:03.198Z,28.20
2017-12-19T16:16:04.897Z,31.47
2017-12-19T16:18:05.874Z,27.10
2017-12-19T16:20:06.874Z,29.90
2017-12-19T16:22:08.186Z,31.17
2017-12-19T16:24:09.883Z,28.63
2017-12-19T16:26:10.830Z,31.67
2017-12-19T16:28:11.752Z,32.60
2017-12-19T16:30:12.714Z,31.30
2017-12-19T16:32:14.375Z,30.57
2017-12-19T16:34:16.516Z,34.30
2017-12-19T16:36:17.500Z,31.13
2017-12-19T16:38:18.455Z,29.40
2017-12-19T16:40:19.414Z,30.23
2017-12-19T16:42:20.346Z,30.30
2017-12-19T16:44:21.266Z,31.80
2017-12-19T16:46:22.930Z,31.87
2017-12-19T16:48:24.632Z,30.97
2017-12-19T16:50:25.566Z,32.37
2017-12-19T16:52:26.500Z,32.10
2017-12-19T16:54:27.634Z,35.30
2017-12-19T16:56:29.491Z,31.30
2017-12-19T16:58:30.416Z,32.00
2017-12-19T17:00:31.357Z,32.23
2017-12-19T17:02:32.292Z,31.10
2017-12-19T17:04:34.477Z,30.63
2017-12-19T17:06:35.434Z,30.50
2017-12-19T17:08:36.394Z,29.23
2017-12-19T17:10:37.415Z,29.43
2017-12-19T17:12:38.308Z,31.67
2017-12-19T17:14:39.994Z,30.77
2017-12-19T17:16:40.949Z,30.87
2017-12-19T17:18:41.984Z,30.63
2017-12-19T17:20:42.967Z,29.00
2017-12-19T17:22:43.964Z,30.80
2017-12-19T17:24:45.660Z,28.70
2017-12-19T17:26:46.718Z,29.97
2017-12-19T17:28:47.678Z,30.07
2017-12-19T17:30:48.686Z,30.80
2017-12-19T17:32:49.662Z,30.40
2017-12-19T17:34:50.607Z,32.37
2017-12-19T17:36:51.577Z,28.47
2017-12-19T17:38:52.573Z,29.93
2017-12-19T17:40:53.527Z,30.20
2017-12-19T17:42:54.509Z,30.07
2017-12-19T17:44:55.499Z,28.93
2017-12-19T17:46:56.481Z,31.53
2017-12-19T17:48:57.428Z,32.30
2017-12-19T17:50:58.402Z,31.60
2017-12-19T17:52:59.418Z,32.63
2017-12-19T17:55:00.391Z,31.27
2017-12-19T17:57:01.364Z,33.93
2017-12-19T17:59:02.315Z,34.43
2017-12-19T18:01:03.283Z,33.70
2017-12-19T18:03:04.247Z,34.97
2017-12-19T18:05:05.232Z,34.17
2017-12-19T18:07:06.236Z,34.27
2017-12-19T18:09:07.217Z,34.57
2017-12-19T18:11:08.231Z,34.80
2017-12-19T18:13:09.216Z,37.27
2017-12-19T18:15:11.239Z,35.77
2017-12-19T18:17:12.226Z,37.60
2017-12-19T18:19:13.151Z,34.30
2017-12-19T18:21:14.152Z,36.03
2017-12-19T18:23:15.186Z,33.77
2017-12-19T18:25:16.879Z,35.97
2017-12-19T18:27:17.907Z,36.40
2017-12-19T18:29:18.868Z,38.27
2017-12-19T18:31:19.819Z,35.60
2017-12-19T18:33:20.833Z,37.60
2017-12-19T18:35:22.515Z,37.07
2017-12-19T18:37:23.471Z,37.30
2017-12-19T18:39:24.464Z,38.80
2017-12-19T18:41:25.406Z,38.73
2017-12-19T18:43:26.370Z,40.23
2017-12-19T18:45:27.337Z,40.73
2017-12-19T18:47:28.344Z,40.10
2017-12-19T18:49:29.319Z,39.90
2017-12-19T18:51:31.086Z,39.27
2017-12-19T18:53:32.070Z,38.60
2017-12-19T18:55:33.023Z,39.87
2017-12-19T18:57:33.987Z,39.80
2017-12-19T18:59:34.929Z,44.60
2017-12-19T19:01:35.915Z,44.90
2017-12-19T19:03:36.872Z,42.37
2017-12-19T19:05:37.843Z,42.33
2017-12-19T19:07:38.809Z,43.30
2017-12-19T19:09:39.757Z,43.80
2017-12-19T19:11:40.721Z,45.47
2017-12-19T19:13:41.732Z,44.33
2017-12-19T19:15:42.759Z,45.63
2017-12-19T19:17:43.740Z,47.17
2017-12-19T19:19:44.712Z,46.80
2017-12-19T19:21:48.729Z,47.97
2017-12-19T19:23:49.754Z,45.93
2017-12-19T19:25:50.716Z,45.90
2017-12-19T19:27:51.806Z,49.00
2017-12-19T19:29:52.863Z,47.27
2017-12-19T19:31:53.863Z,46.10
2017-12-19T19:33:54.820Z,48.33
2017-12-19T19:35:56.624Z,46.97
2017-12-19T19:37:57.603Z,48.97
2017-12-19T19:39:58.616Z,49.63
2017-12-19T19:41:59.567Z,45.43
2017-12-19T19:44:00.640Z,48.87
2017-12-19T19:46:01.579Z,48.30
2017-12-19T19:48:02.943Z,49.10
2017-12-19T19:50:03.959Z,49.17
2017-12-19T19:52:04.998Z,51.47
2017-12-19T19:54:06.020Z,51.17
2017-12-19T19:56:07.000Z,52.37
2017-12-19T19:58:07.975Z,49.53
2017-12-19T20:00:08.968Z,51.37
2017-12-19T20:02:10.068Z,50.97
2017-12-19T20:04:11.061Z,50.60
2017-12-19T20:06:12.025Z,52.47
2017-12-19T20:08:13.090Z,48.47
2017-12-19T20:10:14.090Z,49.17
2017-12-19T20:12:15.796Z,46.57
2017-12-19T20:14:16.822Z,48.83
2017-12-19T20:16:17.920Z,48.93
2017-12-19T20:18:18.960Z,48.17
2017-12-19T20:20:19.961Z,49.30
2017-12-19T20:22:21.297Z,49.80
2017-12-19T20:24:22.344Z,49.40
2017-12-19T20:26:23.390Z,47.13
2017-12-19T20:28:24.409Z,51.27
2017-12-19T20:30:25.446Z,51.57
2017-12-19T20:32:26.457Z,49.10
2017-12-19T20:34:27.455Z,49.73
2017-12-19T20:36:29.240Z,46.43
2017-12-19T20:38:31.006Z,50.40
2017-12-19T20:40:31.998Z,47.40
2017-12-19T20:42:33.007Z,48.97
2017-12-19T20:44:34.714Z,46.97
2017-12-19T20:46:35.658Z,49.20
2017-12-19T20:48:36.765Z,50.07
2017-12-19T20:50:37.740Z,47.17
2017-12-19T20:52:38.730Z,46.03
2017-12-19T20:54:39.708Z,49.80
2017-12-19T20:56:40.648Z,48.70
2017-12-19T20:58:42.390Z,47.03
2017-12-19T21:00:43.396Z,45.70
2017-12-19T21:02:44.355Z,46.67
2017-12-19T21:04:45.412Z,46.93
2017-12-19T21:06:46.365Z,47.23
2017-12-19T21:08:47.416Z,46.47
2017-12-19T21:10:50.020Z,49.57
2017-12-19T21:12:51.008Z,48.10
2017-12-19T21:14:51.997Z,46.00
2017-12-19T21:16:53.033Z,44.80
2017-12-19T21:18:54.086Z,48.27
2017-12-19T21:20:55.048Z,50.10
2017-12-19T21:22:56.020Z,47.77
2017-12-19T21:24:57.063Z,44.23
2017-12-19T21:26:58.048Z,45.20
2017-12-19T21:28:59.003Z,46.33
2017-12-19T21:31:00.026Z,44.83
2017-12-19T21:33:01.008Z,47.70
2017-12-19T21:35:02.074Z,47.53
2017-12-19T21:37:03.786Z,48.13
2017-12-19T21:39:04.839Z,46.80
2017-12-19T21:41:05.803Z,44.40
2017-12-19T21:43:06.885Z,45.83
2017-12-19T21:45:08.623Z,43.37
2017-12-19T21:47:09.578Z,42.50
2017-12-19T21:49:10.548Z,44.00
2017-12-19T21:51:11.483Z,43.20
2017-12-19T21:53:12.444Z,41.30
2017-12-19T21:55:13.421Z,39.50
2017-12-19T21:57:14.464Z,43.10
2017-12-19T21:59:16.191Z,40.60
2017-12-19T22:01:17.166Z,42.40
2017-12-19T22:03:18.235Z,41.37
2017-12-19T22:05:19.228Z,41.70
2017-12-19T22:07:20.927Z,42.20
2017-12-19T22:09:21.920Z,42.13
2017-12-19T22:11:22.891Z,42.20
2017-12-19T22:13:23.887Z,44.47
2017-12-19T22:15:24.870Z,41.80
2017-12-19T22:17:25.820Z,45.30
2017-12-19T22:19:26.774Z,40.47
2017-12-19T22:21:27.729Z,41.53
2017-12-19T22:23:28.691Z,39.40
2017-12-19T22:25:29.646Z,43.33
2017-12-19T22:27:30.597Z,42.17
2017-12-19T22:29:31.589Z,43.17
2017-12-19T22:31:32.553Z,36.50
2017-12-19T22:33:33.539Z,39.87
2017-12-19T22:35:34.537Z,38.37
2017-12-19T22:37:36.241Z,36.40
2017-12-19T22:39:37.303Z,38.73
2017-12-19T22:41:38.268Z,35.77
2017-12-19T22:43:39.291Z,37.00
2017-12-19T22:45:40.291Z,36.07
2017-12-19T22:47:41.335Z,34.70
2017-12-19T22:49:43.040Z,35.20
2017-12-19T22:51:44.008Z,35.30
2017-12-19T22:53:45.004Z,31.60
2017-12-19T22:55:46.695Z,31.90
2017-12-19T22:57:48.591Z,34.97
2017-12-19T22:59:49.650Z,33.50
2017-12-19T23:01:50.624Z,32.17
2017-12-19T23:03:51.591Z,33.03
2017-12-19T23:05:52.633Z,32.20
2017-12-19T23:07:53.693Z,32.10
2017-12-19T23:09:54.661Z,30.80
2017-12-19T23:11:55.610Z,28.67
2017-12-19T23:13:56.627Z,30.77
2017-12-19T23:15:57.647Z,30.10
2017-12-19T23:17:58.634Z,30.80
2017-12-19T23:19:59.664Z,31.07
2017-12-19T23:22:00.660Z,29.23
2017-12-19T23:24:01.663Z,28.97
2017-12-19T23:26:02.664Z,31.77
2017-12-19T23:28:03.667Z,30.80
2017-12-19T23:30:04.648Z,31.47
2017-12-19T23:32:05.654Z,31.57
2017-12-19T23:34:06.711Z,28.93
2017-12-19T23:36:07.658Z,30.47
2017-12-19T23:38:08.646Z,29.63
2017-12-19T23:40:09.617Z,31.50
2017-12-19T23:42:11.316Z,29.70
2017-12-19T23:44:12.346Z,28.60
2017-12-19T23:46:13.420Z,31.10
2017-12-19T23:48:14.444Z,30.30
2017-12-19T23:50:15.412Z,31.33
2017-12-19T23:52:16.405Z,30.87
2017-12-19T23:54:18.216Z,29.70
2017-12-19T23:56:19.176Z,32.13
2017-12-19T23:58:20.177Z,30.13
